Flood watches and warnings may be in place at some locations. For the latest rainfall, river conditions, flood watches and warnings see BoM.

Forecasts are only available for sites displaying the forecast symbol.

Some water levels are actually in metres AHD (Australian Height Datum), click individual sites for more details.

Scroll for more >

River gauges, storages, and weirs in the Murray–Darling Basin

Type Location Riversort descending Water level Flow Volume Release Water temp Salinity Rainfall
River Gauge Rochester Campaspe 1.74 m 5/07/2022 8:00 99 ML/Day 5/07/2022 8:00 Not measured Not measured 8.5°C 5/07/2022 8:00 570.3 μS/cm 5/07/2022 8:00 0.00 mm 5/07/2022 8:00 Full data
River Gauge Wilcania Darling 9.69 m 5/07/2022 8:00 28213 ML/Day 5/07/2022 8:00 Not measured Not measured 11.2°C 5/07/2022 8:00 210.7 μS/cm 4/07/2022 8:00 Not measured Full data
Storage Menindee Lakes Darling Not measured Not measured 1905 GL 4/07/2022 8:00 Not measured Not measured Not measured Not measured Full data
River Gauge Weir 32 Upstream Darling 6.42 m 5/07/2022 8:00 22563 ML/Day 5/07/2022 8:00 Not measured Not measured 10.2°C 5/07/2022 8:00 223.3 μS/cm 5/07/2022 8:00 Not measured Full data
River Gauge Burtundy Darling 6.44 m 5/07/2022 8:00 15590 ML/Day 5/07/2022 8:00 Not measured Not measured 10.5°C 5/07/2022 8:00 233.8 μS/cm 4/07/2022 8:00 Not measured Full data
Weirs Steven's Weir Upstream Edward 4.11 m 5/07/2022 8:00 Not measured Not measured Not measured Not measured Not measured Not measured Full data
Weirs Steven's Weir Downstream Edward 4.05 m 5/07/2022 7:00 6695 ML/Day 5/07/2022 7:00 Not measured Not measured 8.4°C 5/07/2022 8:00 68 μS/cm 4/07/2022 8:00 Not measured Full data
River Gauge McCoy Bridge Goulburn 1.85 m 5/07/2022 8:00 1584 ML/Day 5/07/2022 8:00 Not measured Not measured 8.2°C 5/07/2022 8:00 142.8 μS/cm 5/07/2022 8:00 Not measured Full data
River Gauge Bandiana Kiewa 1.82 m 5/07/2022 8:00 1701 ML/Day 5/07/2022 8:00 Not measured Not measured 6.3°C 5/07/2022 8:00 40.7 μS/cm 5/07/2022 8:00 Not measured Full data
River Gauge Kerang Loddon 0.49 m 5/07/2022 8:00 448 ML/Day 5/07/2022 8:00 Not measured Not measured 8.2°C 5/07/2022 8:00 110.6 μS/cm 5/07/2022 8:00 Not measured Full data
River Gauge Hinnomunjie Mitta 0.98 m 5/07/2022 7:00 1238 ML/Day 5/07/2022 7:00 Not measured Not measured 5.9°C 5/07/2022 7:00 59.4 μS/cm 5/07/2022 7:00 0.00 mm 5/07/2022 7:00 Full data
Storage Dartmouth Dam Mitta 483.12 m 5/07/2022 7:00 Not measured 3670 GL 5/07/2022 7:00 Not measured Not measured Not measured Not measured Full data
Storage Dartmouth Dam Mitta 483.12 m 5/07/2022 7:00 Not measured 3670 GL 5/07/2022 7:00 Not measured Not measured Not measured Not measured Full data
River Gauge Colemans Mitta 1.39 m 5/07/2022 7:00 958 ML/Day 5/07/2022 7:00 Not measured Not measured 8.9°C 5/07/2022 7:00 49.9 μS/cm 5/07/2022 7:00 Not measured Full data
River Gauge Colemans Mitta 1.39 m 5/07/2022 7:00 958 ML/Day 5/07/2022 7:00 Not measured Not measured 8.9°C 5/07/2022 7:00 49.9 μS/cm 5/07/2022 7:00 Not measured Full data
River Gauge Tallandoon Mitta 1.86 m 5/07/2022 7:00 1709 ML/Day 5/07/2022 7:00 Not measured Not measured 7.7°C 5/07/2022 7:00 43.4 μS/cm 5/07/2022 7:00 Not measured Full data
River Gauge Tallandoon Mitta 1.86 m 5/07/2022 7:00 1709 ML/Day 5/07/2022 7:00 Not measured Not measured 7.7°C 5/07/2022 7:00 43.4 μS/cm 5/07/2022 7:00 Not measured Full data
River Gauge Barmah Choke Murray 3.8 m 5/07/2022 7:00 13612 ML/Day 5/07/2022 7:00 Not measured Not measured Not measured Not measured Not measured Full data
River Gauge Redcliffs Murray Not measured Not measured Not measured Not measured Not measured 119.3 μS/cm 4/07/2022 8:00 Not measured Full data
River Gauge Biggara Murray 0.71 m 5/07/2022 8:00 1274 ML/Day 5/07/2022 8:00 Not measured Not measured 7.4°C 5/07/2022 8:00 59.5 μS/cm 5/07/2022 8:00 0.00 mm 5/07/2022 8:00 Full data
River Gauge Bringenbrong Bridge Murray 1.53 m 5/07/2022 8:00 3891 ML/Day 5/07/2022 8:00 Not measured Not measured Not measured Not measured Not measured Full data
River Gauge Pinegrove Murray 1.77 m 5/07/2022 8:00 1366 ML/Day 5/07/2022 8:00 Not measured Not measured 6.1°C 5/07/2022 8:00 57.4 μS/cm 5/07/2022 8:00 0.00 mm 5/07/2022 8:00 Full data
River Gauge Jingellic Murray 2.19 m 4/07/2022 8:00 8612 ML/Day 4/07/2022 8:00 Not measured Not measured 7.1°C 5/07/2022 7:00 44.7 μS/cm 5/07/2022 7:00 0.00 mm 5/07/2022 7:00 Full data
Storage Hume Dam Murray 191.05 m 5/07/2022 8:00 Not measured 2818 GL 5/07/2022 8:00 13926.7 ML/d5/07/2022 8:00 Not measured Not measured 0.00 mm 5/07/2022 8:00 Full data
River Gauge Doctors Point Murray 3.14 m 5/07/2022 8:00 17338 ML/Day 5/07/2022 8:00 Not measured Not measured 11.5°C 5/07/2022 9:00 197.3 μS/cm 5/07/2022 8:00 Not measured Full data
River Gauge Albury (Union Bridge) Murray 2.19 m 5/07/2022 8:00 Not measured Not measured Not measured 11°C 5/07/2022 9:00 61.1 μS/cm 5/07/2022 8:00 Not measured Full data
River Gauge Corowa Murray 3.39 m 5/07/2022 8:00 17460 ML/Day 5/07/2022 8:00 Not measured Not measured 10.4°C 5/07/2022 9:00 60.2 μS/cm 5/07/2022 8:00 Not measured Full data
Weirs Yarrawonga Weir Upstream Murray 120.2 m 4/07/2022 9:00 Not measured Not measured Not measured Not measured Not measured 0.00 mm 5/07/2022 7:00 Full data
Weirs Yarrawonga Weir Downstream Murray 3.1 m 5/07/2022 8:00 22962 ML/Day 5/07/2022 8:00 Not measured Not measured 9.6°C 5/07/2022 8:00 62 μS/cm 4/07/2022 8:00 Not measured Full data
River Gauge Yarrawonga Main Channel Murray 0.00 m 5/07/2022 7:00 Not measured Not measured 0.00 ML/d5/07/2022 7:00 Not measured Not measured Not measured Full data
River Gauge Mulwala Canal Murray Not measured Not measured Not measured 0.00 ML/d5/07/2022 9:00 Not measured Not measured Not measured Full data
River Gauge Tocumwal Murray 3.9 m 5/07/2022 7:00 24644 ML/Day 5/07/2022 7:00 Not measured Not measured 9.3°C 5/07/2022 7:00 51.3 μS/cm 5/07/2022 7:00 Not measured Full data
River Gauge Edward River Offtake Murray 2.79 m 5/07/2022 8:00 2209 ML/Day 5/07/2022 8:00 Not measured Not measured 9.4°C 5/07/2022 8:00 53.3 μS/cm 4/07/2022 8:00 Not measured Full data
River Gauge Gulpa Creek Offtake Murray 3.21 m 5/07/2022 7:00 909 ML/Day 5/07/2022 7:00 Not measured Not measured Not measured Not measured Not measured Full data
River Gauge Echuca Wharf Murray 88.13 m 5/07/2022 6:00 Not measured Not measured Not measured Not measured Not measured Not measured Full data
Weirs Torrumbarry Weir Downstream Murray 4.15 m 5/07/2022 7:00 14097 ML/Day 5/07/2022 7:00 Not measured Not measured 8.8°C 5/07/2022 7:00 71.6 μS/cm 5/07/2022 7:00 Not measured Full data
Weirs Torrumbarry Weir Upstream Murray 86.05 m 5/07/2022 6:00 Not measured 37 GL 4/07/2022 9:00 Not measured 9°C 4/07/2022 9:00 71.5 μS/cm 5/07/2022 6:00 0.00 mm 4/07/2022 9:00 Full data
River Gauge Torrumbarry Headworks Murray 86.19 m 5/07/2022 7:00 Not measured Not measured 984.8 ML/d5/07/2022 6:00 Not measured Not measured Not measured Full data
River Gauge Stoney Crossing Murray 2.07 m 5/07/2022 7:00 2621 ML/Day 5/07/2022 7:00 Not measured 976.2 ML/d14/01/2022 7:45 9.2°C 5/07/2022 8:00 71.8 μS/cm 5/07/2022 7:00 Not measured Full data
River Gauge Swan Hill Murray 2.25 m 5/07/2022 7:00 12961 ML/Day 5/07/2022 7:00 Not measured Not measured 8.9°C 5/07/2022 7:00 71.9 μS/cm 5/07/2022 7:00 Not measured Full data
River Gauge Wakool Junction Murray 5.24 m 5/07/2022 8:00 17733 ML/Day 5/07/2022 8:00 Not measured Not measured 9°C 5/07/2022 8:00 77.5 μS/cm 5/07/2022 8:00 Not measured Full data
Weirs Euston Weir Upstream Murray 47.22 m 4/07/2022 9:00 Not measured 32 GL 4/07/2022 8:00 Not measured Not measured Not measured 145.9 mm 5/03/2020 9:00 Full data
Weirs Euston Weir Downstream Murray 45.76 m 5/07/2022 8:00 25996 ML/Day 5/07/2022 8:00 Not measured Not measured 9.3°C 5/07/2022 8:00 124.6 μS/cm 5/07/2022 8:00 Not measured Full data
River Gauge Colignan Murray 4.3 m 5/07/2022 8:00 26063 ML/Day 5/07/2022 8:00 Not measured Not measured 9.8°C 5/07/2022 8:00 106.3 μS/cm 5/07/2022 8:00 Not measured Full data
Weirs Mildura Weir downstream Murray 32.18 m 5/07/2022 8:00 Not measured Not measured Not measured 10°C 5/07/2022 8:00 117.6 μS/cm 5/07/2022 8:00 Not measured Full data
Weirs Lock 9 Downstream Murray 26.7 m 5/07/2022 7:00 Not measured Not measured Not measured Not measured Not measured Not measured Full data
Weirs Lock 9 Upstream Murray 27.45 m 5/07/2022 7:00 Not measured Not measured Not measured 10.3°C 5/07/2022 7:00 171.4 μS/cm 5/07/2022 7:00 Not measured Full data
Weirs Lock 8 Upstream Murray 25.11 m 5/07/2022 8:00 Not measured Not measured Not measured 10.3°C 5/07/2022 8:00 182.2 μS/cm 5/07/2022 8:00 Not measured Full data
River Gauge Frenchman Creek Murray 27.85 m 4/07/2022 8:00 Not measured Not measured 1054.9 ML/d4/07/2022 8:00 Not measured Not measured Not measured Full data
Storage Lake Victoria Murray 24.24 m 5/07/2022 8:00 Not measured 369 GL 5/07/2022 8:00 Not measured 9.5°C 5/07/2022 8:00 209.9 μS/cm 5/07/2022 8:00 Not measured Full data
River Gauge Rufus River Murray 23.7 m 4/07/2022 8:00 Not measured Not measured 5682 ML/d4/07/2022 8:00 Not measured 207 μS/cm 5/07/2022 5:00 Not measured Full data
Weirs Lock 7 Downstream Murray 23.59 m 29/06/2022 13:00 Not measured Not measured Not measured Not measured Not measured Not measured Full data
Weirs Lock 7 Upstream Murray 23.74 m 5/07/2022 7:00 Not measured Not measured Not measured 10.3°C 5/07/2022 7:00 170 μS/cm 5/07/2022 7:00 Not measured Full data
River Gauge Flow to South Australia Murray Not measured Not measured Not measured 44814 ML/d4/07/2022 8:00 Not measured Not measured Not measured Full data
Weirs Lock 6 Downstream Murray 18.66 m 5/07/2022 7:00 Not measured Not measured Not measured Not measured Not measured Not measured Full data
Weirs Lock 6 Upstream Murray 19.29 m 5/07/2022 7:00 Not measured Not measured Not measured 10.2°C 5/07/2022 7:00 183.9 μS/cm 5/07/2022 7:00 Not measured Full data
Weirs Lock 5 Downstream Murray 15.26 m 5/07/2022 7:00 Not measured Not measured Not measured Not measured Not measured Not measured Full data
Weirs Lock 5 Upstream Murray 16.32 m 5/07/2022 7:00 Not measured Not measured Not measured 10.3°C 5/07/2022 7:00 186.2 μS/cm 5/07/2022 7:00 Not measured Full data
Weirs Lock 4 Downstream Murray 12.96 m 5/07/2022 7:00 Not measured Not measured Not measured Not measured Not measured Not measured Full data
Weirs Lock 4 Upstream Murray 13.27 m 5/07/2022 7:00 Not measured Not measured Not measured Not measured Not measured Not measured Full data
Weirs Lock 3 Downstream Murray 8.55 m 5/07/2022 7:00 Not measured Not measured Not measured Not measured Not measured Not measured Full data
Weirs Lock 3 Upstream Murray 9.82 m 5/07/2022 7:00 Not measured Not measured Not measured Not measured Not measured Not measured Full data
Weirs Lock 2 Downstream Murray 5.82 m 5/07/2022 8:00 Not measured Not measured Not measured Not measured Not measured Not measured Full data
Weirs Lock 2 Upstream Murray 6.15 m 5/07/2022 8:00 Not measured Not measured Not measured 10.7°C 5/07/2022 8:00 208.6 μS/cm 5/07/2022 8:00 Not measured Full data
River Gauge Morgan Downstream Murray Not measured Not measured Not measured 35490 ML/d5/07/2022 7:00 Not measured 213.5 μS/cm 5/07/2022 5:00 Not measured Full data
Weirs Lock 1 Downstream Murray 2.48 m 5/07/2022 8:00 Not measured Not measured 36013.8 ML/d4/07/2022 8:00 Not measured Not measured Not measured Full data
Weirs Lock 1 Upstream Murray 3.2 m 5/07/2022 8:00 Not measured Not measured Not measured 10.8°C 5/07/2022 8:00 206.3 μS/cm 5/07/2022 8:00 Not measured Full data
River Gauge Murray Bridge Murray 0.69 m 5/07/2022 8:00 Not measured Not measured Not measured 11.6°C 5/07/2022 8:00 221.1 μS/cm 5/07/2022 8:00 Not measured Full data
River Gauge Lake Alexandrina Murray 0.69 m 5/07/2022 9:00 Not measured 1576 GL 5/07/2022 9:00 Not measured Not measured 707.3 μS/cm 5/07/2022 7:00 Not measured Full data
River Gauge Lake Albert Murray 0.68 m 5/07/2022 9:00 Not measured 259 GL 5/07/2022 9:00 Not measured Not measured Not measured Not measured Full data
River Gauge Tauwitchere Barrage Murray 0.66 m 5/07/2022 7:00 Not measured Not measured Not measured Not measured Not measured Not measured Full data
River Gauge Mundoo Barrage Murray 0.63 m 4/07/2022 8:00 Not measured Not measured Not measured Not measured Not measured Not measured Full data
Weirs Wentworth Weir Murray 30.02 m 5/07/2022 9:00 Not measured Not measured 40998.1 ML/d5/07/2022 9:00 Not measured 136.0 μS/cm 28/09/2021 7:45 Not measured Full data
River Gauge Balranald Murrumbidgee 6.03 m 5/07/2022 8:00 11218 ML/Day 5/07/2022 8:00 Not measured Not measured 9.3°C 5/07/2022 8:00 150.3 μS/cm 5/07/2022 8:00 Not measured Full data
River Gauge Peechelba Ovens 128.45 m 5/07/2022 7:00 5071 ML/Day 5/07/2022 7:00 Not measured Not measured 7.4°C 5/07/2022 8:00 48.3 μS/cm 5/07/2022 8:00 Not measured Full data
River Gauge Edward Escape Wakool -1.21 m 5/07/2022 7:00 0.00 ML/Day 4/07/2022 8:00 Not measured Not measured 5.7°C 5/07/2022 8:00 0.00 μS/cm 4/07/2022 8:00 Not measured Full data
River Gauge Wakool Canal Wakool -0.05 m 5/07/2022 8:00 Not measured Not measured 0.00 ML/d5/07/2022 9:00 Not measured Not measured Not measured Full data